createdAt,value
2016-03-05T00:00:07.394Z,0
2016-03-05T00:01:07.413Z,0
2016-03-05T00:02:07.430Z,0
2016-03-05T00:03:07.449Z,0
2016-03-05T00:04:07.482Z,0
2016-03-05T00:05:07.501Z,0
2016-03-05T00:06:08.160Z,0
2016-03-05T00:07:07.554Z,0
2016-03-05T00:08:07.540Z,0
2016-03-05T00:09:07.574Z,0
2016-03-05T00:10:07.576Z,0
2016-03-05T00:11:07.611Z,0
2016-03-05T00:12:07.598Z,0
2016-03-05T00:13:07.898Z,0
2016-03-05T00:14:07.870Z,0
2016-03-05T00:15:07.747Z,0
2016-03-05T00:16:07.656Z,0
2016-03-05T00:17:07.689Z,0
2016-03-05T00:18:07.709Z,0
2016-03-05T00:19:07.742Z,0
2016-03-05T00:20:07.744Z,0
2016-03-05T00:21:07.757Z,0
2016-03-05T00:22:07.748Z,0
2016-03-05T00:23:07.801Z,0
2016-03-05T00:24:07.792Z,0
2016-03-05T00:25:07.799Z,0
2016-03-05T00:26:07.810Z,0
2016-03-05T00:27:07.824Z,0
2016-03-05T00:28:07.638Z,0
2016-03-05T00:29:07.825Z,0
2016-03-05T00:30:08.085Z,0
2016-03-05T00:31:07.849Z,0
2016-03-05T00:32:07.883Z,0
2016-03-05T00:33:07.898Z,0
2016-03-05T00:34:07.948Z,0
2016-03-05T00:35:07.949Z,0
2016-03-05T00:36:07.966Z,0
2016-03-05T00:37:07.936Z,0
2016-03-05T00:38:07.970Z,0
2016-03-05T00:39:07.986Z,0
2016-03-05T00:40:07.973Z,0
2016-03-05T00:41:08.037Z,0
2016-03-05T00:42:08.010Z,0
2016-03-05T00:43:08.075Z,0
2016-03-05T00:44:08.062Z,0
2016-03-05T00:45:08.143Z,0
2016-03-05T00:46:08.082Z,0
2016-03-05T00:47:08.148Z,0
2016-03-05T00:48:08.119Z,0
2016-03-05T00:49:08.170Z,0
2016-03-05T00:50:08.187Z,0
2016-03-05T00:51:08.206Z,0
2016-03-05T00:52:08.192Z,0
2016-03-05T00:53:08.211Z,0
2016-03-05T00:54:08.228Z,0
2016-03-05T00:55:08.248Z,0
2016-03-05T00:56:08.267Z,0
2016-03-05T00:57:08.284Z,0
2016-03-05T00:58:08.303Z,0
2016-03-05T00:59:08.367Z,0
2016-03-05T01:00:08.339Z,0
2016-03-05T01:01:08.341Z,0
2016-03-05T01:02:08.360Z,0
2016-03-05T01:03:08.379Z,0
2016-03-05T01:04:08.428Z,0
2016-03-05T01:05:08.447Z,0
2016-03-05T01:06:08.418Z,0
2016-03-05T01:07:08.436Z,0
2016-03-05T01:08:08.454Z,0
2016-03-05T01:09:08.474Z,0
2016-03-05T01:10:08.507Z,0
2016-03-05T01:11:08.541Z,0
2016-03-05T01:12:08.527Z,0
2016-03-05T01:13:08.546Z,0
2016-03-05T01:14:08.392Z,0
2016-03-05T01:15:08.582Z,0
2016-03-05T01:16:08.585Z,0
2016-03-05T01:17:08.682Z,0
2016-03-05T01:18:08.638Z,0
2016-03-05T01:19:08.750Z,0
2016-03-05T01:20:08.659Z,0
2016-03-05T01:21:08.661Z,0
2016-03-05T01:22:08.679Z,0
2016-03-05T01:23:08.713Z,0
2016-03-05T01:24:08.748Z,0
2016-03-05T01:25:08.751Z,0
2016-03-05T01:26:08.753Z,0
2016-03-05T01:27:08.802Z,0
2016-03-05T01:28:08.820Z,0
2016-03-05T01:29:08.855Z,0
2016-03-05T01:30:08.826Z,0
2016-03-05T01:31:08.844Z,0
2016-03-05T01:32:08.863Z,0
2016-03-05T01:33:08.881Z,0
2016-03-05T01:34:08.931Z,0
2016-03-05T01:35:08.949Z,0
2016-03-05T01:36:08.935Z,0
2016-03-05T01:37:08.969Z,0
2016-03-05T01:38:08.973Z,0
2016-03-05T01:39:09.022Z,0
2016-03-05T01:40:09.025Z,0
2016-03-05T01:41:09.043Z,0
2016-03-05T01:42:09.030Z,0
2016-03-05T01:43:09.064Z,0
2016-03-05T01:44:09.082Z,0
2016-03-05T01:45:09.085Z,0
2016-03-05T01:46:09.135Z,0
2016-03-05T01:47:09.122Z,0
2016-03-05T01:48:09.140Z,0
2016-03-05T01:49:09.174Z,0
2016-03-05T01:50:09.176Z,0
2016-03-05T01:51:09.195Z,0
2016-03-05T01:52:09.228Z,0
2016-03-05T01:53:09.232Z,0
2016-03-05T01:54:09.266Z,0
2016-03-05T01:55:09.253Z,0
2016-03-05T01:56:09.286Z,0
2016-03-05T01:57:09.273Z,0
2016-03-05T01:58:09.308Z,0
2016-03-05T01:59:09.311Z,0
2016-03-05T02:00:09.328Z,0
2016-03-05T02:01:09.348Z,0
2016-03-05T02:02:09.381Z,0
2016-03-05T02:03:09.414Z,0
2016-03-05T02:04:09.433Z,0
2016-03-05T02:05:09.435Z,0
2016-03-05T02:06:09.439Z,0
2016-03-05T02:07:09.458Z,0
2016-03-05T02:08:09.460Z,0
2016-03-05T02:09:09.494Z,0
2016-03-05T02:10:09.496Z,0
2016-03-05T02:11:09.530Z,0
2016-03-05T02:12:09.548Z,0
2016-03-05T02:13:09.566Z,0
2016-03-05T02:14:09.586Z,0
2016-03-05T02:15:09.588Z,0
2016-03-05T02:16:09.654Z,0
2016-03-05T02:17:09.472Z,0
2016-03-05T02:18:09.694Z,0
2016-03-05T02:19:09.665Z,0
2016-03-05T02:20:09.683Z,0
2016-03-05T02:21:09.732Z,0
2016-03-05T02:22:09.719Z,0
2016-03-05T02:23:09.723Z,0
2016-03-05T02:24:09.741Z,0
2016-03-05T02:25:09.775Z,0
2016-03-05T02:26:09.793Z,0
2016-03-05T02:27:09.812Z,0
2016-03-05T02:28:09.814Z,0
2016-03-05T02:29:09.832Z,0
2016-03-05T02:30:09.851Z,0
2016-03-05T02:31:09.869Z,0
2016-03-05T02:32:09.887Z,0
2016-03-05T02:33:09.906Z,0
2016-03-05T02:34:09.940Z,0
2016-03-05T02:35:09.927Z,0
2016-03-05T02:36:09.945Z,0
2016-03-05T02:37:09.964Z,0
2016-03-05T02:38:09.982Z,0
2016-03-05T02:39:09.984Z,0
2016-03-05T02:40:10.018Z,0
2016-03-05T02:41:10.052Z,0
2016-03-05T02:42:10.070Z,0
2016-03-05T02:43:10.058Z,0
2016-03-05T02:44:10.092Z,0
2016-03-05T02:45:10.095Z,0
2016-03-05T02:46:10.159Z,0
2016-03-05T02:47:10.147Z,0
2016-03-05T02:48:10.149Z,0
2016-03-05T02:49:10.199Z,0
2016-03-05T02:50:10.201Z,0
2016-03-05T02:51:10.205Z,0
2016-03-05T02:52:10.270Z,0
2016-03-05T02:53:10.241Z,0
2016-03-05T02:54:10.244Z,0
2016-03-05T02:55:10.277Z,0
2016-03-05T02:56:10.280Z,0
2016-03-05T02:57:10.298Z,0
2016-03-05T02:58:10.332Z,0
2016-03-05T02:59:10.351Z,0
2016-03-05T03:00:10.354Z,0
2016-03-05T03:01:10.387Z,0
2016-03-05T03:02:10.437Z,0
2016-03-05T03:03:10.408Z,0
2016-03-05T03:04:10.270Z,0
2016-03-05T03:05:10.445Z,0
2016-03-05T03:06:10.462Z,0
2016-03-05T03:07:10.498Z,0
2016-03-05T03:08:10.547Z,0
2016-03-05T03:09:10.503Z,0
2016-03-05T03:10:10.520Z,0
2016-03-05T03:11:10.539Z,0
2016-03-05T03:12:10.558Z,0
2016-03-05T03:13:10.576Z,0
2016-03-05T03:14:10.595Z,0
2016-03-05T03:15:10.644Z,0
2016-03-05T03:16:10.631Z,0
2016-03-05T03:17:10.649Z,0
2016-03-05T03:18:10.652Z,0
2016-03-05T03:19:10.716Z,0
2016-03-05T03:20:10.720Z,0
2016-03-05T03:21:10.723Z,0
2016-03-05T03:22:10.741Z,0
2016-03-05T03:23:10.744Z,0
2016-03-05T03:24:10.761Z,0
2016-03-05T03:25:10.780Z,0
2016-03-05T03:26:10.798Z,0
2016-03-05T03:27:10.816Z,0
2016-03-05T03:28:10.882Z,0
2016-03-05T03:29:10.838Z,0
2016-03-05T03:30:10.857Z,0
2016-03-05T03:31:10.874Z,0
2016-03-05T03:32:10.893Z,0
2016-03-05T03:33:10.926Z,0
2016-03-05T03:34:10.976Z,0
2016-03-05T03:35:10.963Z,0
2016-03-05T03:36:10.982Z,0
2016-03-05T03:37:10.984Z,0
2016-03-05T03:38:11.003Z,0
2016-03-05T03:39:11.005Z,0
2016-03-05T03:40:11.023Z,0
2016-03-05T03:41:11.042Z,0
2016-03-05T03:42:11.076Z,0
2016-03-05T03:43:11.079Z,0
2016-03-05T03:44:11.098Z,0
2016-03-05T03:45:11.115Z,0
2016-03-05T03:46:11.133Z,0
2016-03-05T03:47:11.152Z,0
2016-03-05T03:48:11.186Z,0
2016-03-05T03:49:11.188Z,0
2016-03-05T03:50:11.192Z,0
2016-03-05T03:51:11.209Z,0
2016-03-05T03:52:11.259Z,0
2016-03-05T03:53:11.246Z,0
2016-03-05T03:54:11.264Z,0
2016-03-05T03:55:11.282Z,0
2016-03-05T03:56:11.301Z,0
2016-03-05T03:57:11.304Z,0
2016-03-05T03:58:11.338Z,0
2016-03-05T03:59:11.356Z,0
2016-03-05T04:00:11.390Z,0
2016-03-05T04:01:11.393Z,0
2016-03-05T04:02:11.395Z,0
2016-03-05T04:03:11.429Z,0
2016-03-05T04:04:11.431Z,0
2016-03-05T04:05:11.451Z,0
2016-03-05T04:06:11.469Z,0
2016-03-05T04:07:11.487Z,0
2016-03-05T04:08:11.490Z,0
2016-03-05T04:09:11.507Z,0
2016-03-05T04:10:11.542Z,0
2016-03-05T04:11:11.560Z,0
2016-03-05T04:12:11.579Z,0
2016-03-05T04:13:11.582Z,0
2016-03-05T04:14:11.600Z,0
2016-03-05T04:15:11.603Z,0
2016-03-05T04:16:11.636Z,0
2016-03-05T04:17:11.653Z,0
2016-03-05T04:18:11.656Z,0
2016-03-05T04:19:11.692Z,0
2016-03-05T04:20:11.725Z,0
2016-03-05T04:21:11.728Z,0
2016-03-05T04:22:11.747Z,0
2016-03-05T04:23:11.764Z,0
2016-03-05T04:24:11.782Z,0
2016-03-05T04:25:11.785Z,0
2016-03-05T04:26:11.836Z,0
2016-03-05T04:27:11.822Z,0
2016-03-05T04:28:11.856Z,0
2016-03-05T04:29:11.843Z,0
2016-03-05T04:30:11.861Z,0
2016-03-05T04:31:11.879Z,0
2016-03-05T04:32:11.929Z,0
2016-03-05T04:33:11.915Z,0
2016-03-05T04:34:11.966Z,0
2016-03-05T04:35:11.953Z,0
2016-03-05T04:36:11.987Z,0
2016-03-05T04:37:11.990Z,0
2016-03-05T04:38:12.023Z,0
2016-03-05T04:39:11.885Z,0
2016-03-05T04:40:12.044Z,0
2016-03-05T04:41:12.062Z,0
2016-03-05T04:42:12.066Z,0
2016-03-05T04:43:12.084Z,0
2016-03-05T04:44:12.118Z,0
2016-03-05T04:45:12.120Z,0
2016-03-05T04:46:12.138Z,0
2016-03-05T04:47:12.141Z,0
2016-03-05T04:48:12.176Z,0
2016-03-05T04:49:12.178Z,0
2016-03-05T04:50:12.197Z,0
2016-03-05T04:51:12.245Z,0
2016-03-05T04:52:12.248Z,0
2016-03-05T04:53:12.282Z,0
2016-03-05T04:54:12.269Z,0
2016-03-05T04:55:12.303Z,0
2016-03-05T04:56:12.306Z,0
2016-03-05T04:57:12.325Z,0
2016-03-05T04:58:12.328Z,0
2016-03-05T04:59:12.392Z,0
2016-03-05T05:00:12.238Z,0
2016-03-05T05:01:12.413Z,0
2016-03-05T05:02:12.400Z,0
2016-03-05T05:03:12.466Z,0
2016-03-05T05:04:12.438Z,0
2016-03-05T05:05:12.455Z,0
2016-03-05T05:06:12.240Z,0
2016-03-05T05:07:12.508Z,0
2016-03-05T05:08:12.511Z,0
2016-03-05T05:09:12.513Z,0
2016-03-05T05:10:12.564Z,0
2016-03-05T05:11:12.551Z,0
2016-03-05T05:12:12.600Z,0
2016-03-05T05:13:12.588Z,0
2016-03-05T05:14:12.636Z,0
2016-03-05T05:15:12.624Z,0
2016-03-05T05:16:12.673Z,0
2016-03-05T05:17:12.644Z,0
2016-03-05T05:18:12.694Z,0
2016-03-05T05:19:12.682Z,0
2016-03-05T05:20:12.732Z,0
2016-03-05T05:21:12.718Z,0
2016-03-05T05:22:12.768Z,0
2016-03-05T05:23:12.754Z,0
2016-03-05T05:24:12.757Z,0
2016-03-05T05:25:12.790Z,0
2016-03-05T05:26:12.794Z,0
2016-03-05T05:27:12.829Z,0
2016-03-05T05:28:12.831Z,0
2016-03-05T05:29:12.865Z,0
2016-03-05T05:30:12.883Z,0
2016-03-05T05:31:12.886Z,0
2016-03-05T05:32:12.904Z,0
2016-03-05T05:33:12.906Z,0
2016-03-05T05:34:12.940Z,0
2016-03-05T05:35:12.208Z,0
2016-03-05T05:36:12.993Z,0
2016-03-05T05:37:12.980Z,0
2016-03-05T05:38:13.029Z,0
2016-03-05T05:39:13.000Z,0
2016-03-05T05:40:13.066Z,0
2016-03-05T05:41:12.897Z,0
2016-03-05T05:42:13.119Z,0
2016-03-05T05:43:12.964Z,0
2016-03-05T05:44:13.139Z,0
2016-03-05T05:45:13.127Z,0
2016-03-05T05:46:13.113Z,0
2016-03-05T05:47:13.163Z,0
2016-03-05T05:48:13.165Z,0
2016-03-05T05:49:13.185Z,0
2016-03-05T05:50:13.218Z,0
2016-03-05T05:51:13.221Z,0
2016-03-05T05:52:13.270Z,0
2016-03-05T05:53:13.085Z,0
2016-03-05T05:54:13.275Z,0
2016-03-05T05:55:13.294Z,0
2016-03-05T05:56:13.313Z,0
2016-03-05T05:57:13.299Z,0
2016-03-05T05:58:13.334Z,0
2016-03-05T05:59:13.351Z,0
2016-03-05T06:00:13.370Z,0
2016-03-05T06:01:13.404Z,0
2016-03-05T06:02:13.390Z,0
2016-03-05T06:03:13.441Z,0
2016-03-05T06:04:13.428Z,0
2016-03-05T06:05:13.478Z,0
2016-03-05T06:06:13.464Z,0
2016-03-05T06:07:13.483Z,0
2016-03-05T06:08:13.517Z,0
2016-03-05T06:09:12.784Z,0
2016-03-05T06:10:13.553Z,0
2016-03-05T06:11:13.556Z,0
2016-03-05T06:12:13.590Z,0
2016-03-05T06:13:13.577Z,0
2016-03-05T06:14:13.642Z,0
2016-03-05T06:15:13.629Z,0
2016-03-05T06:16:13.632Z,0
2016-03-05T06:17:13.680Z,0
2016-03-05T06:18:13.668Z,0
2016-03-05T06:19:13.687Z,0
2016-03-05T06:20:13.752Z,0
2016-03-05T06:21:13.724Z,0
2016-03-05T06:22:13.726Z,0
2016-03-05T06:23:13.603Z,0
2016-03-05T06:24:13.762Z,0
2016-03-05T06:25:13.781Z,0
2016-03-05T06:26:13.799Z,0
2016-03-05T06:27:13.833Z,0
2016-03-05T06:28:13.836Z,0
2016-03-05T06:29:13.901Z,0
2016-03-05T06:30:13.872Z,0
2016-03-05T06:31:13.922Z,0
2016-03-05T06:32:13.910Z,5
2016-03-05T06:33:13.912Z,5
2016-03-05T06:34:13.945Z,5
2016-03-05T06:35:13.980Z,5
2016-03-05T06:36:14.014Z,5
2016-03-05T06:37:13.984Z,5
2016-03-05T06:38:14.034Z,5
2016-03-05T06:39:14.022Z,5
2016-03-05T06:40:14.025Z,5
2016-03-05T06:41:14.043Z,5
2016-03-05T06:42:14.092Z,5
2016-03-05T06:43:14.080Z,5
2016-03-05T06:44:14.128Z,5
2016-03-05T06:45:14.116Z,5
2016-03-05T06:46:14.165Z,5
2016-03-05T06:47:14.152Z,5
2016-03-05T06:48:14.203Z,5
2016-03-05T06:49:14.174Z,5
2016-03-05T06:50:14.099Z,5
2016-03-05T06:51:14.241Z,5
2016-03-05T06:52:14.229Z,5
2016-03-05T06:53:14.262Z,5
2016-03-05T06:54:14.280Z,5
2016-03-05T06:55:14.315Z,5
2016-03-05T06:56:14.286Z,5
2016-03-05T06:57:14.305Z,5
2016-03-05T06:58:14.323Z,5
2016-03-05T06:59:14.341Z,5
2016-03-05T07:00:14.390Z,5
2016-03-05T07:01:14.393Z,5
2016-03-05T07:02:14.443Z,5
2016-03-05T07:03:14.429Z,5
2016-03-05T07:04:14.449Z,5
2016-03-05T07:05:14.467Z,5
2016-03-05T07:06:14.501Z,5
2016-03-05T07:07:14.534Z,5
2016-03-05T07:08:14.537Z,5
2016-03-05T07:09:14.555Z,5
2016-03-05T07:10:14.527Z,5
2016-03-05T07:11:14.561Z,5
2016-03-05T07:12:14.595Z,5
2016-03-05T07:13:14.613Z,10
2016-03-05T07:14:14.600Z,10
2016-03-05T07:15:14.618Z,10
2016-03-05T07:16:14.621Z,10
2016-03-05T07:17:14.671Z,10
2016-03-05T07:18:14.658Z,10
2016-03-05T07:19:14.723Z,10
2016-03-05T07:20:14.695Z,10
2016-03-05T07:21:14.728Z,10
2016-03-05T07:22:14.746Z,10
2016-03-05T07:23:14.749Z,10
2016-03-05T07:24:14.768Z,10
2016-03-05T07:25:14.786Z,10
2016-03-05T07:26:14.804Z,10
2016-03-05T07:27:14.838Z,10
2016-03-05T07:28:14.841Z,10
2016-03-05T07:29:14.907Z,10
2016-03-05T07:30:14.924Z,10
2016-03-05T07:31:14.927Z,10
2016-03-05T07:32:14.898Z,10
2016-03-05T07:33:14.965Z,10
2016-03-05T07:34:14.935Z,10
2016-03-05T07:35:15.015Z,10
2016-03-05T07:36:15.284Z,10
2016-03-05T07:37:15.037Z,10
2016-03-05T07:38:15.039Z,15
2016-03-05T07:39:15.026Z,15
2016-03-05T07:40:15.029Z,15
2016-03-05T07:41:15.064Z,15
2016-03-05T07:42:15.067Z,15
2016-03-05T07:43:15.100Z,15
2016-03-05T07:44:15.103Z,15
2016-03-05T07:45:15.136Z,15
2016-03-05T07:46:15.139Z,15
2016-03-05T07:47:15.205Z,15
2016-03-05T07:48:15.160Z,15
2016-03-05T07:49:15.211Z,15
2016-03-05T07:50:15.213Z,15
2016-03-05T07:51:15.231Z,15
2016-03-05T07:52:15.233Z,15
2016-03-05T07:53:15.268Z,15
2016-03-05T07:54:15.411Z,15
2016-03-05T07:55:15.288Z,15
2016-03-05T07:56:15.322Z,20
2016-03-05T07:57:15.325Z,20
2016-03-05T07:58:15.391Z,20
2016-03-05T07:59:15.362Z,20
2016-03-05T08:00:15.396Z,20
2016-03-05T08:01:15.382Z,20
2016-03-05T08:02:15.449Z,20
2016-03-05T08:03:15.435Z,20
2016-03-05T08:04:15.485Z,25
2016-03-05T08:05:15.472Z,25
2016-03-05T08:06:15.475Z,20
2016-03-05T08:07:15.524Z,20
2016-03-05T08:08:15.496Z,15
2016-03-05T08:09:15.546Z,15
2016-03-05T08:10:15.549Z,15
2016-03-05T08:11:15.613Z,15
2016-03-05T08:12:15.663Z,15
2016-03-05T08:13:15.635Z,15
2016-03-05T08:14:15.621Z,15
2016-03-05T08:15:15.640Z,20
2016-03-05T08:16:15.674Z,20
2016-03-05T08:17:15.662Z,20
2016-03-05T08:18:15.696Z,20
2016-03-05T08:19:15.745Z,20
2016-03-05T08:20:15.731Z,20
2016-03-05T08:21:15.734Z,20
2016-03-05T08:22:15.768Z,20
2016-03-05T08:23:15.865Z,25
2016-03-05T08:24:15.806Z,25
2016-03-05T08:25:15.855Z,20
2016-03-05T08:26:15.842Z,20
2016-03-05T08:27:15.861Z,20
2016-03-05T08:28:15.863Z,20
2016-03-05T08:29:15.881Z,20
2016-03-05T08:30:15.899Z,25
2016-03-05T08:31:15.917Z,25
2016-03-05T08:32:15.952Z,25
2016-03-05T08:33:15.954Z,25
2016-03-05T08:34:15.989Z,25
2016-03-05T08:35:15.991Z,20
2016-03-05T08:36:16.010Z,20
2016-03-05T08:37:16.027Z,20
2016-03-05T08:38:16.046Z,20
2016-03-05T08:39:16.049Z,20
2016-03-05T08:40:16.066Z,20
2016-03-05T08:41:16.085Z,20
2016-03-05T08:42:16.104Z,20
2016-03-05T08:43:16.138Z,20
2016-03-05T08:44:16.156Z,20
2016-03-05T08:45:16.143Z,25
2016-03-05T08:46:16.177Z,25
2016-03-05T08:47:16.210Z,25
2016-03-05T08:48:16.229Z,25
2016-03-05T08:49:16.231Z,25
2016-03-05T08:50:16.266Z,25
2016-03-05T08:51:16.112Z,25
2016-03-05T08:52:16.303Z,25
2016-03-05T08:53:16.305Z,25
2016-03-05T08:54:16.370Z,25
2016-03-05T08:55:16.357Z,25
2016-03-05T08:56:16.359Z,25
2016-03-05T08:57:16.394Z,25
2016-03-05T08:58:16.381Z,25
2016-03-05T08:59:16.415Z,25
2016-03-05T09:00:16.464Z,25
2016-03-05T09:01:16.436Z,25
2016-03-05T09:02:16.455Z,25
2016-03-05T09:03:16.473Z,25
2016-03-05T09:04:16.475Z,25
2016-03-05T09:05:16.508Z,25
2016-03-05T09:06:16.371Z,25
2016-03-05T09:07:16.577Z,25
2016-03-05T09:08:16.580Z,20
2016-03-05T09:09:16.583Z,20
2016-03-05T09:10:16.601Z,20
2016-03-05T09:11:16.635Z,20
2016-03-05T09:12:16.637Z,20
2016-03-05T09:13:16.687Z,20
2016-03-05T09:14:16.674Z,20
2016-03-05T09:15:16.693Z,20
2016-03-05T09:16:16.710Z,20
2016-03-05T09:17:16.760Z,20
2016-03-05T09:18:16.762Z,20
2016-03-05T09:19:16.765Z,20
2016-03-05T09:20:16.815Z,20
2016-03-05T09:21:16.802Z,20
2016-03-05T09:22:16.867Z,20
2016-03-05T09:23:16.854Z,25
2016-03-05T09:24:16.889Z,25
2016-03-05T09:25:16.875Z,25
2016-03-05T09:26:16.894Z,25
2016-03-05T09:27:16.900Z,25
2016-03-05T09:28:16.919Z,25
2016-03-05T09:29:16.923Z,30
2016-03-05T09:30:16.912Z,30
2016-03-05T09:31:16.916Z,30
2016-03-05T09:32:16.913Z,30
2016-03-05T09:33:16.941Z,30
2016-03-05T09:34:16.986Z,30
2016-03-05T09:35:16.984Z,30
2016-03-05T09:36:16.982Z,30
2016-03-05T09:37:16.997Z,30
2016-03-05T09:38:16.998Z,30
2016-03-05T09:39:17.015Z,30
2016-03-05T09:40:17.078Z,30
2016-03-05T09:41:17.141Z,30
2016-03-05T09:42:17.127Z,30
2016-03-05T09:43:17.084Z,30
2016-03-05T09:44:17.117Z,30
2016-03-05T09:45:17.134Z,30
2016-03-05T09:46:17.137Z,30
2016-03-05T09:47:17.218Z,30
2016-03-05T09:48:17.220Z,30
2016-03-05T09:49:17.222Z,30
2016-03-05T09:50:17.255Z,30
2016-03-05T09:51:17.258Z,30
2016-03-05T09:52:17.261Z,30
2016-03-05T09:53:17.310Z,30
2016-03-05T09:54:17.328Z,30
2016-03-05T09:55:17.175Z,30
2016-03-05T09:56:17.366Z,30
2016-03-05T09:57:17.352Z,30
2016-03-05T09:58:17.371Z,35
2016-03-05T09:59:17.405Z,35
2016-03-05T10:00:17.439Z,35
2016-03-05T10:01:17.457Z,30
2016-03-05T10:02:17.474Z,30
2016-03-05T10:03:17.493Z,30
2016-03-05T10:04:17.324Z,30
2016-03-05T10:05:17.561Z,30
2016-03-05T10:06:17.549Z,30
2016-03-05T10:07:17.566Z,30
2016-03-05T10:08:17.569Z,30
2016-03-05T10:09:17.571Z,30
2016-03-05T10:10:17.606Z,30
2016-03-05T10:11:17.639Z,25
2016-03-05T10:12:17.627Z,25
2016-03-05T10:13:17.707Z,25
2016-03-05T10:14:17.679Z,30
2016-03-05T10:15:17.698Z,30
2016-03-05T10:16:17.732Z,30
2016-03-05T10:17:17.718Z,30
2016-03-05T10:18:17.736Z,30
2016-03-05T10:19:17.895Z,25
2016-03-05T10:20:17.805Z,30
2016-03-05T10:21:17.808Z,25
2016-03-05T10:22:17.842Z,25
2016-03-05T10:23:17.844Z,25
2016-03-05T10:24:17.878Z,25
2016-03-05T10:25:17.880Z,25
2016-03-05T10:26:17.914Z,30
2016-03-05T10:27:17.933Z,25
2016-03-05T10:28:17.936Z,25
2016-03-05T10:29:17.986Z,20
2016-03-05T10:30:17.972Z,20
2016-03-05T10:31:18.022Z,15
2016-03-05T10:32:18.008Z,20
2016-03-05T10:33:18.043Z,20
2016-03-05T10:34:18.060Z,20
2016-03-05T10:35:18.110Z,20
2016-03-05T10:36:17.988Z,25
2016-03-05T10:37:18.116Z,25
2016-03-05T10:38:18.135Z,25
2016-03-05T10:39:18.152Z,25
2016-03-05T10:40:18.030Z,25
2016-03-05T10:41:18.204Z,30
2016-03-05T10:42:18.207Z,30
2016-03-05T10:43:18.225Z,30
2016-03-05T10:44:18.260Z,30
2016-03-05T10:45:18.279Z,30
2016-03-05T10:46:18.312Z,30
2016-03-05T10:47:18.315Z,30
2016-03-05T10:48:18.395Z,25
2016-03-05T10:49:18.351Z,25
2016-03-05T10:50:18.386Z,25
2016-03-05T10:51:18.295Z,25
2016-03-05T10:52:18.437Z,30
2016-03-05T10:53:18.425Z,30
2016-03-05T10:54:18.475Z,30
2016-03-05T10:55:18.477Z,30
2016-03-05T10:56:18.495Z,30
2016-03-05T10:57:18.513Z,30
2016-03-05T10:58:18.548Z,30
2016-03-05T10:59:18.549Z,30
2016-03-05T11:00:18.584Z,25
2016-03-05T11:01:18.602Z,25
2016-03-05T11:02:18.605Z,25
2016-03-05T11:03:18.623Z,25
2016-03-05T11:04:18.641Z,25
2016-03-05T11:05:18.676Z,25
2016-03-05T11:06:18.725Z,30
2016-03-05T11:07:18.712Z,30
2016-03-05T11:08:18.747Z,25
2016-03-05T11:09:18.780Z,25
2016-03-05T11:10:18.767Z,25
2016-03-05T11:11:18.832Z,25
2016-03-05T11:12:18.819Z,25
2016-03-05T11:13:18.838Z,25
2016-03-05T11:14:18.840Z,20
2016-03-05T11:15:18.906Z,20
2016-03-05T11:16:18.893Z,20
2016-03-05T11:17:18.926Z,20
2016-03-05T11:18:18.929Z,20
2016-03-05T11:19:18.994Z,20
2016-03-05T11:20:18.966Z,20
2016-03-05T11:21:19.032Z,25
2016-03-05T11:22:19.018Z,25
2016-03-05T11:23:19.021Z,25
2016-03-05T11:24:19.039Z,35
2016-03-05T11:25:19.089Z,45
2016-03-05T11:26:19.091Z,40
2016-03-05T11:27:19.188Z,35
2016-03-05T11:28:19.127Z,40
2016-03-05T11:29:19.161Z,40
2016-03-05T11:30:19.165Z,40
2016-03-05T11:31:19.199Z,35
2016-03-05T11:32:19.233Z,35
2016-03-05T11:33:19.235Z,25
2016-03-05T11:34:19.269Z,30
2016-03-05T11:35:19.287Z,30
2016-03-05T11:36:19.321Z,30
2016-03-05T11:37:19.184Z,35
2016-03-05T11:38:19.343Z,35
2016-03-05T11:39:19.377Z,35
2016-03-05T11:40:19.379Z,40
2016-03-05T11:41:19.429Z,40
2016-03-05T11:42:19.462Z,40
2016-03-05T11:43:19.449Z,45
2016-03-05T11:44:19.484Z,40
2016-03-05T11:45:19.471Z,40
2016-03-05T11:46:19.537Z,40
2016-03-05T11:47:19.523Z,35
2016-03-05T11:48:19.588Z,35
2016-03-05T11:49:19.559Z,35
2016-03-05T11:50:19.610Z,40
2016-03-05T11:51:19.736Z,35
2016-03-05T11:52:19.646Z,35
2016-03-05T11:53:19.664Z,35
2016-03-05T11:54:19.698Z,35
2016-03-05T11:55:19.700Z,35
2016-03-05T11:56:19.766Z,35
2016-03-05T11:57:19.737Z,35
2016-03-05T11:58:19.755Z,35
2016-03-05T11:59:19.790Z,35
2016-03-05T12:00:19.808Z,35
2016-03-05T12:01:19.842Z,35
2016-03-05T12:02:19.875Z,35
2016-03-05T12:03:19.894Z,35
2016-03-05T12:04:19.897Z,35
2016-03-05T12:05:19.946Z,35
2016-03-05T12:06:19.809Z,35
2016-03-05T12:07:19.952Z,30
2016-03-05T12:08:20.002Z,30
2016-03-05T12:09:20.020Z,30
2016-03-05T12:10:20.038Z,30
2016-03-05T12:11:20.040Z,35
2016-03-05T12:12:20.121Z,35
2016-03-05T12:13:19.921Z,35
2016-03-05T12:14:20.126Z,35
2016-03-05T12:15:20.130Z,35
2016-03-05T12:16:20.179Z,30
2016-03-05T12:17:20.166Z,30
2016-03-05T12:18:20.184Z,30
2016-03-05T12:19:20.218Z,30
2016-03-05T12:20:20.237Z,30
2016-03-05T12:21:20.333Z,35
2016-03-05T12:22:20.305Z,35
2016-03-05T12:23:20.307Z,35
2016-03-05T12:24:20.342Z,35
2016-03-05T12:25:20.360Z,35
2016-03-05T12:26:20.378Z,35
2016-03-05T12:27:20.427Z,35
2016-03-05T12:28:20.430Z,35
2016-03-05T12:29:20.448Z,35
2016-03-05T12:30:20.467Z,35
2016-03-05T12:31:20.486Z,35
2016-03-05T12:32:20.503Z,35
2016-03-05T12:33:20.147Z,35
2016-03-05T12:34:20.540Z,30
2016-03-05T12:35:20.574Z,30
2016-03-05T12:36:20.608Z,30
2016-03-05T12:37:20.626Z,30
2016-03-05T12:38:20.661Z,30
2016-03-05T12:39:20.694Z,30
2016-03-05T12:40:20.728Z,30
2016-03-05T12:41:20.715Z,30
2016-03-05T12:42:20.749Z,30
2016-03-05T12:43:20.752Z,25
2016-03-05T12:44:20.785Z,25
2016-03-05T12:45:20.788Z,25
2016-03-05T12:46:20.838Z,25
2016-03-05T12:47:20.841Z,20
2016-03-05T12:48:20.874Z,20
2016-03-05T12:49:20.893Z,20
2016-03-05T12:50:20.911Z,20
2016-03-05T12:51:20.805Z,20
2016-03-05T12:52:20.964Z,20
2016-03-05T12:53:20.981Z,20
2016-03-05T12:54:21.001Z,20
2016-03-05T12:55:21.018Z,25
2016-03-05T12:56:21.037Z,25
2016-03-05T12:57:21.070Z,35
2016-03-05T12:58:21.089Z,40
2016-03-05T12:59:21.123Z,40
2016-03-05T13:00:21.157Z,40
2016-03-05T13:01:21.175Z,35
2016-03-05T13:02:21.209Z,35
2016-03-05T13:03:21.211Z,30
2016-03-05T13:04:21.230Z,30
2016-03-05T13:05:21.249Z,30
2016-03-05T13:06:21.297Z,30
2016-03-05T13:07:21.301Z,30
2016-03-05T13:08:21.319Z,30
2016-03-05T13:09:21.321Z,30
2016-03-05T13:10:21.371Z,30
2016-03-05T13:11:21.390Z,30
2016-03-05T13:12:21.408Z,30
2016-03-05T13:13:21.441Z,30
2016-03-05T13:14:21.444Z,30
2016-03-05T13:15:21.338Z,30
2016-03-05T13:16:21.497Z,30
2016-03-05T13:17:21.546Z,30
2016-03-05T13:18:21.549Z,30
2016-03-05T13:19:21.582Z,30
2016-03-05T13:20:21.585Z,30
2016-03-05T13:21:21.620Z,30
2016-03-05T13:22:21.637Z,30
2016-03-05T13:23:21.641Z,30
2016-03-05T13:24:21.675Z,30
2016-03-05T13:25:21.709Z,30
2016-03-05T13:26:21.726Z,30
2016-03-05T13:27:21.745Z,30
2016-03-05T13:28:21.779Z,30
2016-03-05T13:29:21.798Z,25
2016-03-05T13:30:21.831Z,25
2016-03-05T13:31:21.989Z,25
2016-03-05T13:32:21.883Z,25
2016-03-05T13:33:21.886Z,25
2016-03-05T13:34:21.905Z,30
2016-03-05T13:35:21.939Z,35
2016-03-05T13:36:21.958Z,40
2016-03-05T13:37:21.975Z,45
2016-03-05T13:38:22.041Z,45
2016-03-05T13:39:22.075Z,40
2016-03-05T13:40:22.061Z,35
2016-03-05T13:41:22.064Z,30
2016-03-05T13:42:22.130Z,30
2016-03-05T13:43:22.102Z,30
2016-03-05T13:44:22.135Z,30
2016-03-05T13:45:22.185Z,30
2016-03-05T13:46:22.202Z,30
2016-03-05T13:47:22.205Z,30
2016-03-05T13:48:22.224Z,35
2016-03-05T13:49:22.257Z,35
2016-03-05T13:50:22.291Z,35
2016-03-05T13:51:22.293Z,35
2016-03-05T13:52:22.329Z,35
2016-03-05T13:53:22.346Z,30
2016-03-05T13:54:22.412Z,30
2016-03-05T13:55:22.383Z,30
2016-03-05T13:56:22.854Z,35
2016-03-05T13:57:22.467Z,35
2016-03-05T13:58:22.469Z,30
2016-03-05T13:59:22.503Z,30
2016-03-05T14:00:22.490Z,25
2016-03-05T14:01:22.556Z,25
2016-03-05T14:02:22.558Z,20
2016-03-05T14:03:22.576Z,20
2016-03-05T14:04:22.611Z,20
2016-03-05T14:05:22.628Z,20
2016-03-05T14:06:22.647Z,20
2016-03-05T14:07:22.649Z,20
2016-03-05T14:08:22.715Z,20
2016-03-05T14:09:22.717Z,20
2016-03-05T14:10:22.736Z,20
2016-03-05T14:11:22.759Z,20
2016-03-05T14:12:22.840Z,20
2016-03-05T14:13:22.779Z,25
2016-03-05T14:14:22.079Z,25
2016-03-05T14:15:22.849Z,25
2016-03-05T14:16:22.882Z,25
2016-03-05T14:17:22.151Z,25
2016-03-05T14:18:22.168Z,25
2016-03-05T14:19:22.937Z,25
2016-03-05T14:20:22.204Z,25
2016-03-05T14:21:23.114Z,25
2016-03-05T14:22:23.007Z,20
2016-03-05T14:23:23.042Z,20
2016-03-05T14:24:22.326Z,20
2016-03-05T14:25:23.093Z,20
2016-03-05T14:26:23.159Z,20
2016-03-05T14:27:23.146Z,20
2016-03-05T14:28:23.195Z,20
2016-03-05T14:29:23.182Z,20
2016-03-05T14:30:23.200Z,20
2016-03-05T14:31:23.204Z,20